Search for airport 
image banner adimage banner adimage banner ad
image banner ad

9CL0 - Turlock Airpark

Located in Turlock, United States

ICAO - 9CL0, IATA -

Data provided by Airmate  

General information

Coordinates: N37°28'15" W120°50'39"
Elevation is 100 feet MSL.
Magnetic variation is 16° East
View others Airports in California

Operational data

Special qualification required
Current time UTC:
Current local time:
METAR: KMOD 221253Z AUTO 36006KT 10SM CLR 14/12 A2988 RMK AO2 SLP118 T01440117
TAF: KMOD 221123Z 2212/2312 33009KT P6SM SKC FM222100 33012KT P6SM SKC FM230400 34008KT P6SM SKC
View NOTAMs / SUP AIP / TFR affecting this airport [VIEW]
Communications frequencies: [VIEW]

Runways:

RWY identifierQFULength (ft)Width (ft)SurfaceLDA (ft)
13207560ASPH
31207560ASPH

Airport contact information

Address: Turlock United States

Satellite view of 9CL0